createdAt,value
2022-10-11T10:29:37.210Z,855.00
2022-10-11T10:30:37.601Z,877.50
2022-10-11T10:31:54.973Z,860.63
2022-10-11T10:32:38.512Z,894.38
2022-10-11T10:33:35.646Z,860.63
2022-10-11T10:34:35.658Z,956.25
2022-10-11T10:35:35.802Z,1012.50
2022-10-11T10:36:36.516Z,1012.50
2022-10-11T10:37:35.998Z,1035.00
2022-10-11T10:38:35.849Z,1001.25
2022-10-11T10:39:35.896Z,973.13
2022-10-11T10:40:38.595Z,939.38
2022-10-11T10:41:35.986Z,933.75
2022-10-11T10:42:36.017Z,905.63
2022-10-11T10:43:36.199Z,905.63
2022-10-11T10:44:38.971Z,916.88
2022-10-11T10:45:36.182Z,810.00
2022-10-11T10:46:36.242Z,703.13
2022-10-11T10:47:36.490Z,720.00
2022-10-11T10:49:09.049Z,579.38
2022-10-11T10:50:01.080Z,528.75
2022-10-11T10:50:36.975Z,528.75
2022-10-11T10:51:36.675Z,540.00
2022-10-11T10:52:38.482Z,545.63
2022-10-11T10:53:41.539Z,523.13
2022-10-11T10:54:36.672Z,511.88
2022-10-11T10:55:36.729Z,720.00
2022-10-11T10:56:36.778Z,641.25
2022-10-11T10:57:36.860Z,731.25
2022-10-11T10:58:36.893Z,815.63
2022-10-11T10:59:36.952Z,838.13
2022-10-11T11:00:37.050Z,826.88
2022-10-11T11:01:37.090Z,838.13
2022-10-11T11:02:41.255Z,776.25
2022-10-11T11:03:37.165Z,624.38
2022-10-11T11:04:37.213Z,826.88
2022-10-11T11:05:37.332Z,894.38
2022-10-11T11:06:43.169Z,781.88
2022-10-11T11:07:44.016Z,832.50
2022-10-11T11:08:37.428Z,815.63
2022-10-11T11:09:37.484Z,832.50
2022-10-11T11:10:37.570Z,748.13
2022-10-11T11:11:38.504Z,736.88
2022-10-11T11:12:39.290Z,776.25
2022-10-11T11:13:37.730Z,815.63
2022-10-11T11:14:39.864Z,838.13
2022-10-11T11:15:38.322Z,911.25
2022-10-11T11:16:37.867Z,928.13
2022-10-11T11:17:37.922Z,928.13
2022-10-11T11:18:37.975Z,933.75
2022-10-11T11:19:38.062Z,888.75
2022-10-11T11:20:38.809Z,697.50
2022-10-11T11:21:41.567Z,888.75
2022-10-11T11:22:38.207Z,900.00
2022-10-11T11:23:42.400Z,928.13
2022-10-11T11:24:38.354Z,916.88
2022-10-11T11:25:41.407Z,905.63
2022-10-11T11:26:41.980Z,877.50
2022-10-11T11:27:38.526Z,911.25
2022-10-11T11:28:38.598Z,950.63
2022-10-11T11:29:38.622Z,961.88
2022-10-11T11:30:39.644Z,950.63
2022-10-11T11:31:44.738Z,911.25
2022-10-11T11:32:42.259Z,956.25
2022-10-11T11:33:38.825Z,916.88
2022-10-11T11:34:38.893Z,894.38
2022-10-11T11:35:39.526Z,911.25
2022-10-11T11:36:49.725Z,832.50
2022-10-11T11:37:54.101Z,866.25
2022-10-11T11:38:40.001Z,855.00
2022-10-11T11:39:41.036Z,933.75
2022-10-11T11:40:39.308Z,973.13
2022-10-11T11:41:39.303Z,990.00
2022-10-11T11:42:39.354Z,1001.25
2022-10-11T11:43:40.009Z,984.38
2022-10-11T11:44:39.567Z,950.63
2022-10-11T11:45:40.014Z,928.13
2022-10-11T11:46:40.594Z,888.75
2022-10-11T11:47:39.701Z,826.88
2022-10-11T11:48:39.726Z,843.75
2022-10-11T11:49:39.762Z,849.38
2022-10-11T11:50:40.519Z,871.88
2022-10-11T11:51:51.780Z,888.75
2022-10-11T11:52:39.911Z,871.88
2022-10-11T11:53:39.984Z,877.50
2022-10-11T11:54:39.993Z,900.00
2022-10-11T11:55:43.015Z,866.25
2022-10-11T11:56:40.110Z,894.38
2022-10-11T11:57:40.273Z,877.50
2022-10-11T11:58:40.365Z,871.88
2022-10-11T11:59:42.056Z,855.00
2022-10-11T12:00:47.065Z,871.88
2022-10-11T12:01:41.075Z,871.88
2022-10-11T12:02:40.514Z,905.63
2022-10-11T12:03:41.737Z,888.75
2022-10-11T12:04:41.575Z,900.00
2022-10-11T12:06:01.836Z,877.50
2022-10-11T12:07:04.186Z,866.25
2022-10-11T12:07:40.858Z,562.50
2022-10-11T12:08:40.853Z,838.13
2022-10-11T12:09:40.952Z,804.38
2022-10-11T12:10:41.587Z,630.00
2022-10-11T12:11:47.571Z,556.88
2022-10-11T12:12:41.089Z,495.00
2022-10-11T12:13:41.126Z,725.63
2022-10-11T12:14:41.277Z,658.13
2022-10-11T12:15:49.176Z,438.75
2022-10-11T12:16:45.001Z,607.50
2022-10-11T12:17:41.417Z,630.00
2022-10-11T12:18:42.872Z,601.88
2022-10-11T12:19:41.545Z,590.63
2022-10-11T12:20:42.080Z,635.63
2022-10-11T12:21:41.593Z,607.50
2022-10-11T12:22:42.583Z,601.88
2022-10-11T12:23:41.767Z,613.13
2022-10-11T12:24:41.720Z,601.88
2022-10-11T12:25:41.800Z,579.38
2022-10-11T12:26:41.828Z,624.38
2022-10-11T12:27:41.890Z,658.13
2022-10-11T12:28:59.768Z,675.00
2022-10-11T12:29:44.252Z,708.75
2022-10-11T12:30:42.110Z,725.63
2022-10-11T12:31:46.080Z,703.13
2022-10-11T12:32:42.216Z,697.50
2022-10-11T12:33:42.287Z,691.88
2022-10-11T12:34:42.395Z,635.63
2022-10-11T12:35:43.104Z,635.63
2022-10-11T12:36:43.160Z,438.75
2022-10-11T12:37:42.503Z,607.50
2022-10-11T12:38:43.076Z,601.88
2022-10-11T12:39:44.881Z,534.38
2022-10-11T12:40:43.598Z,528.75
2022-10-11T12:41:43.563Z,444.38
2022-10-11T12:42:42.773Z,371.25
2022-10-11T12:43:42.843Z,365.63
2022-10-11T12:44:42.919Z,354.38
2022-10-11T12:45:43.059Z,354.38
2022-10-11T12:46:43.712Z,354.38
2022-10-11T12:47:43.074Z,348.75
2022-10-11T12:49:04.158Z,331.88
2022-10-11T12:49:43.187Z,309.38
2022-10-11T12:50:44.077Z,292.50
2022-10-11T12:52:09.684Z,281.25
2022-10-11T12:52:48.167Z,270.00
2022-10-11T12:53:48.158Z,275.63
2022-10-11T12:54:44.794Z,286.88
2022-10-11T12:55:44.098Z,315.00
2022-10-11T12:56:43.568Z,444.38
2022-10-11T12:57:46.767Z,551.25
2022-10-11T12:58:44.566Z,545.63
2022-10-11T12:59:44.000Z,511.88
2022-10-11T13:00:49.111Z,534.38
2022-10-11T13:01:43.852Z,568.13
2022-10-11T13:02:43.858Z,568.13
2022-10-11T13:03:43.950Z,579.38
2022-10-11T13:04:43.983Z,545.63
2022-10-11T13:05:45.475Z,556.88
2022-10-11T13:06:44.085Z,545.63
2022-10-11T13:07:44.140Z,556.88
2022-10-11T13:08:44.225Z,568.13
2022-10-11T13:09:48.977Z,534.38
2022-10-11T13:10:44.312Z,511.88
2022-10-11T13:11:44.370Z,495.00
2022-10-11T13:12:44.432Z,253.13
2022-10-11T13:13:44.544Z,219.38
2022-10-11T13:14:44.548Z,247.50
2022-10-11T13:15:45.061Z,495.00
2022-10-11T13:16:44.668Z,461.25
2022-10-11T13:17:45.564Z,461.25
2022-10-11T13:18:44.854Z,444.38
2022-10-11T13:19:44.941Z,410.63
2022-10-11T13:20:45.568Z,393.75
2022-10-11T13:21:45.563Z,388.13
2022-10-11T13:22:45.020Z,388.13
2022-10-11T13:24:06.133Z,382.50
2022-10-11T13:24:46.070Z,388.13
2022-10-11T13:25:45.232Z,376.88
2022-10-11T13:26:46.068Z,365.63
2022-10-11T13:27:46.069Z,365.63
2022-10-11T13:28:45.431Z,337.50
2022-10-11T13:29:45.436Z,343.13
2022-10-11T13:30:45.519Z,303.75
2022-10-11T13:31:45.572Z,309.38
2022-10-11T13:32:47.332Z,236.25
2022-10-11T13:33:46.573Z,247.50
2022-10-11T13:34:45.781Z,236.25
2022-10-11T13:35:46.074Z,219.38
2022-10-11T13:36:45.903Z,202.50
2022-10-11T13:37:46.177Z,202.50
2022-10-11T13:38:45.956Z,202.50
2022-10-11T13:39:59.087Z,196.88
2022-10-11T13:40:50.140Z,196.88
2022-10-11T13:41:46.163Z,196.88
2022-10-11T13:42:46.613Z,196.88
2022-10-11T13:43:46.231Z,196.88
2022-10-11T13:44:47.120Z,196.88
2022-10-11T13:45:46.691Z,196.88
2022-10-11T13:46:46.454Z,196.88
2022-10-11T13:47:46.510Z,213.75
2022-10-11T13:48:47.123Z,236.25
2022-10-11T13:49:46.621Z,264.38
2022-10-11T13:50:53.112Z,275.63
2022-10-11T13:51:47.454Z,270.00
2022-10-11T13:52:46.778Z,258.75
2022-10-11T13:53:46.860Z,258.75
2022-10-11T13:54:46.872Z,264.38
2022-10-11T13:55:46.948Z,264.38
2022-10-11T13:56:47.528Z,264.38
2022-10-11T13:57:47.117Z,258.75
2022-10-11T13:59:01.679Z,236.25
2022-10-11T13:59:50.128Z,219.38
2022-10-11T14:00:47.374Z,247.50
2022-10-11T14:01:47.266Z,247.50
2022-10-11T14:02:48.128Z,247.50
2022-10-11T14:03:48.590Z,247.50
2022-10-11T14:04:47.415Z,247.50
2022-10-11T14:05:47.505Z,247.50
2022-10-11T14:06:47.527Z,247.50
2022-10-11T14:07:47.574Z,241.88
2022-10-11T14:08:49.874Z,236.25
2022-10-11T14:09:47.734Z,236.25
2022-10-11T14:10:47.762Z,236.25
2022-10-11T14:11:48.205Z,230.63
2022-10-11T14:12:49.630Z,225.00
2022-10-11T14:13:48.636Z,225.00
2022-10-11T14:14:47.967Z,219.38
2022-10-11T14:15:48.036Z,225.00
2022-10-11T14:16:48.081Z,219.38
2022-10-11T14:17:50.719Z,230.63
2022-10-11T14:18:48.215Z,219.38
2022-10-11T14:19:48.262Z,219.38
2022-10-11T14:21:03.268Z,219.38
2022-10-11T14:21:48.372Z,219.38
2022-10-11T14:23:03.125Z,225.00
